sensor_id;sensor_type;location;lat;lon;timestamp;P1;durP1;ratioP1;P2;durP2;ratioP2
61638;SDS011;47544;52.484;4.658;2023-07-31T00:00:00;11.00;;;4.03;;
61638;SDS011;47544;52.484;4.658;2023-07-31T00:00:11;11.32;;;3.97;;
61638;SDS011;47544;52.484;4.658;2023-07-31T00:00:23;12.90;;;3.85;;
61638;SDS011;47544;52.484;4.658;2023-07-31T00:00:34;10.80;;;3.33;;
61638;SDS011;47544;52.484;4.658;2023-07-31T00:00:45;11.18;;;3.38;;
61638;SDS011;47544;52.484;4.658;2023-07-31T00:00:57;11.05;;;2.90;;
61638;SDS011;47544;52.484;4.658;2023-07-31T00:01:08;13.73;;;3.20;;
61638;SDS011;47544;52.484;4.658;2023-07-31T00:01:20;13.25;;;3.00;;
61638;SDS011;47544;52.484;4.658;2023-07-31T00:01:32;11.53;;;2.70;;
61638;SDS011;47544;52.484;4.658;2023-07-31T00:01:43;9.90;;;2.65;;
61638;SDS011;47544;52.484;4.658;2023-07-31T00:01:54;8.95;;;2.72;;
61638;SDS011;47544;52.484;4.658;2023-07-31T00:02:05;9.38;;;3.13;;
61638;SDS011;47544;52.484;4.658;2023-07-31T00:02:16;11.02;;;3.10;;
61638;SDS011;47544;52.484;4.658;2023-07-31T00:02:27;12.73;;;3.55;;
61638;SDS011;47544;52.484;4.658;2023-07-31T00:02:38;14.02;;;3.80;;
61638;SDS011;47544;52.484;4.658;2023-07-31T00:02:49;12.38;;;3.53;;
61638;SDS011;47544;52.484;4.658;2023-07-31T00:03:00;10.63;;;3.08;;
61638;SDS011;47544;52.484;4.658;2023-07-31T00:03:11;10.77;;;3.03;;
61638;SDS011;47544;52.484;4.658;2023-07-31T00:03:23;12.68;;;3.30;;
61638;SDS011;47544;52.484;4.658;2023-07-31T00:03:34;12.10;;;3.17;;
61638;SDS011;47544;52.484;4.658;2023-07-31T00:03:45;9.38;;;2.85;;
61638;SDS011;47544;52.484;4.658;2023-07-31T00:03:56;7.85;;;2.53;;
61638;SDS011;47544;52.484;4.658;2023-07-31T00:04:07;10.48;;;3.05;;
61638;SDS011;47544;52.484;4.658;2023-07-31T00:04:19;14.38;;;3.75;;
61638;SDS011;47544;52.484;4.658;2023-07-31T00:04:30;13.82;;;3.90;;
61638;SDS011;47544;52.484;4.658;2023-07-31T00:04:41;14.05;;;4.05;;
61638;SDS011;47544;52.484;4.658;2023-07-31T00:04:52;12.23;;;3.80;;
61638;SDS011;47544;52.484;4.658;2023-07-31T00:05:04;12.80;;;3.55;;
61638;SDS011;47544;52.484;4.658;2023-07-31T00:05:16;9.68;;;3.05;;
61638;SDS011;47544;52.484;4.658;2023-07-31T00:05:27;9.30;;;3.15;;
61638;SDS011;47544;52.484;4.658;2023-07-31T00:05:38;8.30;;;3.13;;
61638;SDS011;47544;52.484;4.658;2023-07-31T00:05:49;9.73;;;3.20;;
61638;SDS011;47544;52.484;4.658;2023-07-31T00:06:00;9.77;;;3.05;;
61638;SDS011;47544;52.484;4.658;2023-07-31T00:06:11;9.07;;;2.92;;
61638;SDS011;47544;52.484;4.658;2023-07-31T00:06:22;8.90;;;3.08;;
61638;SDS011;47544;52.484;4.658;2023-07-31T00:06:33;9.88;;;3.60;;
61638;SDS011;47544;52.484;4.658;2023-07-31T00:06:44;11.05;;;3.90;;
61638;SDS011;47544;52.484;4.658;2023-07-31T00:06:55;9.77;;;3.63;;
61638;SDS011;47544;52.484;4.658;2023-07-31T00:07:06;8.27;;;3.13;;
61638;SDS011;47544;52.484;4.658;2023-07-31T00:07:18;8.90;;;3.08;;
61638;SDS011;47544;52.484;4.658;2023-07-31T00:07:29;7.47;;;2.70;;
61638;SDS011;47544;52.484;4.658;2023-07-31T00:07:40;7.78;;;2.83;;
61638;SDS011;47544;52.484;4.658;2023-07-31T00:07:51;8.88;;;3.28;;
61638;SDS011;47544;52.484;4.658;2023-07-31T00:08:02;10.52;;;3.50;;
61638;SDS011;47544;52.484;4.658;2023-07-31T00:08:13;10.35;;;3.63;;
61638;SDS011;47544;52.484;4.658;2023-07-31T00:08:24;9.95;;;3.30;;
61638;SDS011;47544;52.484;4.658;2023-07-31T00:08:35;9.32;;;3.05;;
61638;SDS011;47544;52.484;4.658;2023-07-31T00:08:46;9.10;;;3.00;;
61638;SDS011;47544;52.484;4.658;2023-07-31T00:08:57;11.45;;;3.60;;
61638;SDS011;47544;52.484;4.658;2023-07-31T00:09:08;13.82;;;3.92;;
61638;SDS011;47544;52.484;4.658;2023-07-31T00:09:20;14.77;;;4.05;;
61638;SDS011;47544;52.484;4.658;2023-07-31T00:09:31;13.73;;;3.67;;
61638;SDS011;47544;52.484;4.658;2023-07-31T00:09:42;14.15;;;3.92;;
61638;SDS011;47544;52.484;4.658;2023-07-31T00:09:53;13.13;;;3.92;;
61638;SDS011;47544;52.484;4.658;2023-07-31T00:10:04;12.60;;;4.00;;
61638;SDS011;47544;52.484;4.658;2023-07-31T00:10:15;11.55;;;4.13;;
61638;SDS011;47544;52.484;4.658;2023-07-31T00:10:26;15.02;;;4.68;;
61638;SDS011;47544;52.484;4.658;2023-07-31T00:10:37;17.13;;;5.20;;
61638;SDS011;47544;52.484;4.658;2023-07-31T00:10:50;15.90;;;4.95;;
61638;SDS011;47544;52.484;4.658;2023-07-31T00:11:01;13.38;;;4.22;;
61638;SDS011;47544;52.484;4.658;2023-07-31T00:11:13;11.13;;;3.83;;
61638;SDS011;47544;52.484;4.658;2023-07-31T00:11:24;11.52;;;3.53;;
61638;SDS011;47544;52.484;4.658;2023-07-31T00:11:35;14.00;;;4.15;;
61638;SDS011;47544;52.484;4.658;2023-07-31T00:11:47;14.13;;;4.45;;
61638;SDS011;47544;52.484;4.658;2023-07-31T00:11:58;12.77;;;4.55;;
61638;SDS011;47544;52.484;4.658;2023-07-31T00:12:09;12.80;;;4.65;;
61638;SDS011;47544;52.484;4.658;2023-07-31T00:12:20;13.75;;;5.07;;
61638;SDS011;47544;52.484;4.658;2023-07-31T00:12:31;16.83;;;5.90;;
61638;SDS011;47544;52.484;4.658;2023-07-31T00:12:42;16.02;;;5.63;;
61638;SDS011;47544;52.484;4.658;2023-07-31T00:12:54;14.63;;;5.15;;
61638;SDS011;47544;52.484;4.658;2023-07-31T00:13:05;12.82;;;4.50;;
61638;SDS011;47544;52.484;4.658;2023-07-31T00:13:18;10.20;;;4.00;;
61638;SDS011;47544;52.484;4.658;2023-07-31T00:13:29;9.20;;;3.75;;
61638;SDS011;47544;52.484;4.658;2023-07-31T00:13:40;10.90;;;3.70;;
61638;SDS011;47544;52.484;4.658;2023-07-31T00:13:52;13.93;;;4.25;;
61638;SDS011;47544;52.484;4.658;2023-07-31T00:14:03;18.58;;;4.45;;
61638;SDS011;47544;52.484;4.658;2023-07-31T00:14:14;17.70;;;4.63;;
61638;SDS011;47544;52.484;4.658;2023-07-31T00:14:25;13.40;;;4.32;;
61638;SDS011;47544;52.484;4.658;2023-07-31T00:14:37;10.60;;;4.15;;
61638;SDS011;47544;52.484;4.658;2023-07-31T00:14:48;9.82;;;4.00;;
61638;SDS011;47544;52.484;4.658;2023-07-31T00:14:59;9.98;;;3.85;;
61638;SDS011;47544;52.484;4.658;2023-07-31T00:15:10;13.93;;;4.30;;
61638;SDS011;47544;52.484;4.658;2023-07-31T00:15:21;14.88;;;4.47;;
61638;SDS011;47544;52.484;4.658;2023-07-31T00:15:32;14.15;;;4.65;;
61638;SDS011;47544;52.484;4.658;2023-07-31T00:15:43;13.13;;;4.70;;
61638;SDS011;47544;52.484;4.658;2023-07-31T00:15:54;11.95;;;4.57;;
61638;SDS011;47544;52.484;4.658;2023-07-31T00:16:05;10.88;;;4.38;;
61638;SDS011;47544;52.484;4.658;2023-07-31T00:16:17;11.50;;;4.53;;
61638;SDS011;47544;52.484;4.658;2023-07-31T00:16:28;11.18;;;4.35;;
61638;SDS011;47544;52.484;4.658;2023-07-31T00:16:39;13.65;;;4.57;;
61638;SDS011;47544;52.484;4.658;2023-07-31T00:16:50;14.20;;;4.97;;
61638;SDS011;47544;52.484;4.658;2023-07-31T00:17:01;15.65;;;5.70;;
61638;SDS011;47544;52.484;4.658;2023-07-31T00:17:12;15.88;;;5.65;;
61638;SDS011;47544;52.484;4.658;2023-07-31T00:17:23;15.70;;;5.20;;
61638;SDS011;47544;52.484;4.658;2023-07-31T00:17:34;12.57;;;4.20;;
61638;SDS011;47544;52.484;4.658;2023-07-31T00:17:45;12.52;;;3.95;;
61638;SDS011;47544;52.484;4.658;2023-07-31T00:17:56;12.13;;;3.92;;
61638;SDS011;47544;52.484;4.658;2023-07-31T00:18:08;11.95;;;4.18;;
61638;SDS011;47544;52.484;4.658;2023-07-31T00:18:19;9.07;;;3.60;;
61638;SDS011;47544;52.484;4.658;2023-07-31T00:18:30;8.52;;;3.30;;
61638;SDS011;47544;52.484;4.658;2023-07-31T00:18:41;11.02;;;3.60;;
61638;SDS011;47544;52.484;4.658;2023-07-31T00:18:52;12.18;;;3.97;;
61638;SDS011;47544;52.484;4.658;2023-07-31T00:19:03;12.45;;;4.35;;
61638;SDS011;47544;52.484;4.658;2023-07-31T00:19:14;10.50;;;4.00;;
61638;SDS011;47544;52.484;4.658;2023-07-31T00:19:25;9.93;;;3.50;;
61638;SDS011;47544;52.484;4.658;2023-07-31T00:19:36;9.63;;;3.40;;
61638;SDS011;47544;52.484;4.658;2023-07-31T00:19:48;11.43;;;3.92;;
61638;SDS011;47544;52.484;4.658;2023-07-31T00:20:01;13.73;;;4.75;;
61638;SDS011;47544;52.484;4.658;2023-07-31T00:20:12;15.60;;;5.28;;
61638;SDS011;47544;52.484;4.658;2023-07-31T00:20:23;14.45;;;5.00;;
61638;SDS011;47544;52.484;4.658;2023-07-31T00:20:34;11.30;;;4.25;;
61638;SDS011;47544;52.484;4.658;2023-07-31T00:20:45;9.75;;;3.67;;
61638;SDS011;47544;52.484;4.658;2023-07-31T00:20:56;9.43;;;3.50;;
61638;SDS011;47544;52.484;4.658;2023-07-31T00:21:07;10.82;;;3.55;;
61638;SDS011;47544;52.484;4.658;2023-07-31T00:21:18;11.38;;;3.50;;
61638;SDS011;47544;52.484;4.658;2023-07-31T00:21:29;10.65;;;3.08;;
61638;SDS011;47544;52.484;4.658;2023-07-31T00:21:41;9.57;;;3.00;;
61638;SDS011;47544;52.484;4.658;2023-07-31T00:21:52;8.93;;;2.97;;
61638;SDS011;47544;52.484;4.658;2023-07-31T00:22:03;10.57;;;3.22;;
61638;SDS011;47544;52.484;4.658;2023-07-31T00:22:14;11.50;;;3.03;;
61638;SDS011;47544;52.484;4.658;2023-07-31T00:22:25;12.50;;;3.28;;
61638;SDS011;47544;52.484;4.658;2023-07-31T00:22:36;11.27;;;3.38;;
61638;SDS011;47544;52.484;4.658;2023-07-31T00:22:47;11.95;;;4.10;;
61638;SDS011;47544;52.484;4.658;2023-07-31T00:22:58;11.65;;;4.22;;
61638;SDS011;47544;52.484;4.658;2023-07-31T00:23:09;10.85;;;4.13;;
61638;SDS011;47544;52.484;4.658;2023-07-31T00:23:21;11.43;;;4.10;;
61638;SDS011;47544;52.484;4.658;2023-07-31T00:23:32;10.50;;;3.85;;
61638;SDS011;47544;52.484;4.658;2023-07-31T00:23:43;9.68;;;3.75;;
61638;SDS011;47544;52.484;4.658;2023-07-31T00:23:54;11.00;;;3.50;;
61638;SDS011;47544;52.484;4.658;2023-07-31T00:24:05;11.18;;;3.50;;
61638;SDS011;47544;52.484;4.658;2023-07-31T00:24:16;12.02;;;3.75;;
61638;SDS011;47544;52.484;4.658;2023-07-31T00:24:27;10.43;;;3.65;;
61638;SDS011;47544;52.484;4.658;2023-07-31T00:24:38;10.32;;;3.53;;
61638;SDS011;47544;52.484;4.658;2023-07-31T00:24:49;9.52;;;3.30;;
61638;SDS011;47544;52.484;4.658;2023-07-31T00:25:00;11.18;;;3.42;;
61638;SDS011;47544;52.484;4.658;2023-07-31T00:25:12;12.48;;;3.65;;
61638;SDS011;47544;52.484;4.658;2023-07-31T00:25:23;13.18;;;3.80;;
61638;SDS011;47544;52.484;4.658;2023-07-31T00:25:34;13.35;;;3.97;;
61638;SDS011;47544;52.484;4.658;2023-07-31T00:25:45;13.00;;;4.03;;
61638;SDS011;47544;52.484;4.658;2023-07-31T00:25:56;14.55;;;4.43;;
61638;SDS011;47544;52.484;4.658;2023-07-31T00:26:07;15.05;;;4.53;;
61638;SDS011;47544;52.484;4.658;2023-07-31T00:26:18;17.42;;;4.88;;
61638;SDS011;47544;52.484;4.658;2023-07-31T00:26:29;18.30;;;5.07;;
61638;SDS011;47544;52.484;4.658;2023-07-31T00:26:40;19.95;;;5.43;;
61638;SDS011;47544;52.484;4.658;2023-07-31T00:26:52;16.90;;;5.70;;
61638;SDS011;47544;52.484;4.658;2023-07-31T00:27:04;17.90;;;5.88;;
61638;SDS011;47544;52.484;4.658;2023-07-31T00:27:15;17.75;;;5.38;;
61638;SDS011;47544;52.484;4.658;2023-07-31T00:27:26;19.98;;;5.60;;
61638;SDS011;47544;52.484;4.658;2023-07-31T00:27:37;17.98;;;5.05;;
61638;SDS011;47544;52.484;4.658;2023-07-31T00:27:48;16.48;;;4.95;;
61638;SDS011;47544;52.484;4.658;2023-07-31T00:27:59;12.50;;;4.10;;
61638;SDS011;47544;52.484;4.658;2023-07-31T00:28:10;13.15;;;4.47;;
61638;SDS011;47544;52.484;4.658;2023-07-31T00:28:22;11.95;;;4.55;;
61638;SDS011;47544;52.484;4.658;2023-07-31T00:28:34;13.35;;;5.25;;
61638;SDS011;47544;52.484;4.658;2023-07-31T00:28:45;14.80;;;5.38;;
61638;SDS011;47544;52.484;4.658;2023-07-31T00:28:56;14.75;;;5.43;;
61638;SDS011;47544;52.484;4.658;2023-07-31T00:29:07;11.77;;;4.63;;
61638;SDS011;47544;52.484;4.658;2023-07-31T00:29:18;11.60;;;4.43;;
61638;SDS011;47544;52.484;4.658;2023-07-31T00:29:29;12.38;;;4.63;;
61638;SDS011;47544;52.484;4.658;2023-07-31T00:29:41;14.90;;;5.22;;
61638;SDS011;47544;52.484;4.658;2023-07-31T00:29:52;14.02;;;5.13;;
61638;SDS011;47544;52.484;4.658;2023-07-31T00:30:03;11.52;;;4.28;;
61638;SDS011;47544;52.484;4.658;2023-07-31T00:30:15;9.48;;;3.22;;
61638;SDS011;47544;52.484;4.658;2023-07-31T00:30:27;10.68;;;3.45;;
61638;SDS011;47544;52.484;4.658;2023-07-31T00:30:38;12.20;;;4.10;;
61638;SDS011;47544;52.484;4.658;2023-07-31T00:30:49;13.55;;;4.47;;
61638;SDS011;47544;52.484;4.658;2023-07-31T00:30:59;11.23;;;3.97;;
61638;SDS011;47544;52.484;4.658;2023-07-31T00:31:11;11.63;;;3.70;;
61638;SDS011;47544;52.484;4.658;2023-07-31T00:31:21;10.75;;;3.35;;
61638;SDS011;47544;52.484;4.658;2023-07-31T00:31:32;10.48;;;3.13;;
61638;SDS011;47544;52.484;4.658;2023-07-31T00:31:43;9.75;;;3.03;;
61638;SDS011;47544;52.484;4.658;2023-07-31T00:31:55;9.88;;;3.00;;
61638;SDS011;47544;52.484;4.658;2023-07-31T00:32:06;11.75;;;3.08;;
61638;SDS011;47544;52.484;4.658;2023-07-31T00:32:18;11.00;;;3.20;;
61638;SDS011;47544;52.484;4.658;2023-07-31T00:32:29;9.15;;;3.00;;
61638;SDS011;47544;52.484;4.658;2023-07-31T00:32:40;7.57;;;2.83;;
61638;SDS011;47544;52.484;4.658;2023-07-31T00:32:51;6.95;;;2.22;;
61638;SDS011;47544;52.484;4.658;2023-07-31T00:33:02;7.97;;;2.30;;
61638;SDS011;47544;52.484;4.658;2023-07-31T00:33:13;6.60;;;1.92;;
61638;SDS011;47544;52.484;4.658;2023-07-31T00:33:24;7.05;;;2.13;;
61638;SDS011;47544;52.484;4.658;2023-07-31T00:33:35;6.53;;;2.20;;
61638;SDS011;47544;52.484;4.658;2023-07-31T00:33:46;8.65;;;2.80;;
61638;SDS011;47544;52.484;4.658;2023-07-31T00:33:57;11.38;;;3.10;;
61638;SDS011;47544;52.484;4.658;2023-07-31T00:34:09;12.65;;;3.20;;
61638;SDS011;47544;52.484;4.658;2023-07-31T00:34:20;10.95;;;3.10;;
61638;SDS011;47544;52.484;4.658;2023-07-31T00:34:31;9.32;;;2.72;;
61638;SDS011;47544;52.484;4.658;2023-07-31T00:34:42;9.18;;;2.65;;
61638;SDS011;47544;52.484;4.658;2023-07-31T00:34:53;8.65;;;2.42;;
61638;SDS011;47544;52.484;4.658;2023-07-31T00:35:04;8.98;;;2.78;;
61638;SDS011;47544;52.484;4.658;2023-07-31T00:35:15;10.52;;;3.28;;
61638;SDS011;47544;52.484;4.658;2023-07-31T00:35:27;11.77;;;4.15;;
61638;SDS011;47544;52.484;4.658;2023-07-31T00:35:38;10.82;;;4.30;;
61638;SDS011;47544;52.484;4.658;2023-07-31T00:35:50;8.38;;;3.30;;
61638;SDS011;47544;52.484;4.658;2023-07-31T00:36:01;6.78;;;2.80;;
61638;SDS011;47544;52.484;4.658;2023-07-31T00:36:12;5.07;;;2.30;;
61638;SDS011;47544;52.484;4.658;2023-07-31T00:36:23;5.13;;;2.15;;
61638;SDS011;47544;52.484;4.658;2023-07-31T00:36:34;7.00;;;2.77;;
61638;SDS011;47544;52.484;4.658;2023-07-31T00:36:45;9.53;;;3.27;;
61638;SDS011;47544;52.484;4.658;2023-07-31T00:36:56;12.68;;;3.78;;
61638;SDS011;47544;52.484;4.658;2023-07-31T00:37:07;14.77;;;3.75;;
61638;SDS011;47544;52.484;4.658;2023-07-31T00:37:19;15.45;;;4.22;;
61638;SDS011;47544;52.484;4.658;2023-07-31T00:37:30;15.18;;;4.40;;
61638;SDS011;47544;52.484;4.658;2023-07-31T00:37:41;11.30;;;3.80;;
61638;SDS011;47544;52.484;4.658;2023-07-31T00:37:52;11.75;;;3.67;;
61638;SDS011;47544;52.484;4.658;2023-07-31T00:38:03;12.48;;;3.65;;
61638;SDS011;47544;52.484;4.658;2023-07-31T00:38:14;13.17;;;3.70;;
61638;SDS011;47544;52.484;4.658;2023-07-31T00:38:25;11.70;;;3.30;;
61638;SDS011;47544;52.484;4.658;2023-07-31T00:38:36;10.63;;;2.97;;
61638;SDS011;47544;52.484;4.658;2023-07-31T00:38:47;10.95;;;2.60;;
61638;SDS011;47544;52.484;4.658;2023-07-31T00:38:59;12.02;;;2.40;;
61638;SDS011;47544;52.484;4.658;2023-07-31T00:39:10;10.05;;;2.15;;
61638;SDS011;47544;52.484;4.658;2023-07-31T00:39:21;8.70;;;2.50;;
61638;SDS011;47544;52.484;4.658;2023-07-31T00:39:33;9.32;;;2.97;;
61638;SDS011;47544;52.484;4.658;2023-07-31T00:39:44;8.35;;;2.70;;
61638;SDS011;47544;52.484;4.658;2023-07-31T00:39:55;6.68;;;2.30;;
61638;SDS011;47544;52.484;4.658;2023-07-31T00:40:07;8.02;;;2.40;;
61638;SDS011;47544;52.484;4.658;2023-07-31T00:40:18;12.02;;;3.13;;
61638;SDS011;47544;52.484;4.658;2023-07-31T00:40:29;13.55;;;3.45;;
61638;SDS011;47544;52.484;4.658;2023-07-31T00:40:40;13.63;;;3.50;;
61638;SDS011;47544;52.484;4.658;2023-07-31T00:40:52;9.05;;;2.72;;
61638;SDS011;47544;52.484;4.658;2023-07-31T00:41:03;9.73;;;2.75;;
61638;SDS011;47544;52.484;4.658;2023-07-31T00:41:14;9.50;;;2.80;;
61638;SDS011;47544;52.484;4.658;2023-07-31T00:41:25;7.57;;;2.60;;
61638;SDS011;47544;52.484;4.658;2023-07-31T00:41:36;6.90;;;2.38;;
61638;SDS011;47544;52.484;4.658;2023-07-31T00:41:47;6.95;;;2.50;;
61638;SDS011;47544;52.484;4.658;2023-07-31T00:41:58;9.03;;;2.73;;
61638;SDS011;47544;52.484;4.658;2023-07-31T00:42:09;9.40;;;2.78;;
61638;SDS011;47544;52.484;4.658;2023-07-31T00:42:20;11.23;;;2.85;;
61638;SDS011;47544;52.484;4.658;2023-07-31T00:42:31;10.52;;;2.75;;
61638;SDS011;47544;52.484;4.658;2023-07-31T00:42:42;10.77;;;2.90;;
61638;SDS011;47544;52.484;4.658;2023-07-31T00:42:54;8.65;;;2.70;;
61638;SDS011;47544;52.484;4.658;2023-07-31T00:43:05;9.50;;;2.85;;
61638;SDS011;47544;52.484;4.658;2023-07-31T00:43:16;10.38;;;2.97;;
61638;SDS011;47544;52.484;4.658;2023-07-31T00:43:29;10.30;;;3.00;;
61638;SDS011;47544;52.484;4.658;2023-07-31T00:43:40;11.15;;;3.30;;
61638;SDS011;47544;52.484;4.658;2023-07-31T00:43:51;12.90;;;3.42;;
61638;SDS011;47544;52.484;4.658;2023-07-31T00:44:02;12.68;;;3.42;;
61638;SDS011;47544;52.484;4.658;2023-07-31T00:44:13;12.25;;;3.40;;
61638;SDS011;47544;52.484;4.658;2023-07-31T00:44:24;13.27;;;3.75;;
61638;SDS011;47544;52.484;4.658;2023-07-31T00:44:35;13.88;;;3.92;;
61638;SDS011;47544;52.484;4.658;2023-07-31T00:44:47;13.25;;;4.05;;
61638;SDS011;47544;52.484;4.658;2023-07-31T00:44:58;11.88;;;3.40;;
61638;SDS011;47544;52.484;4.658;2023-07-31T00:45:09;13.00;;;3.50;;
61638;SDS011;47544;52.484;4.658;2023-07-31T00:45:20;12.13;;;3.90;;
61638;SDS011;47544;52.484;4.658;2023-07-31T00:45:33;12.88;;;4.22;;
61638;SDS011;47544;52.484;4.658;2023-07-31T00:45:44;13.82;;;4.53;;
61638;SDS011;47544;52.484;4.658;2023-07-31T00:45:55;14.13;;;4.55;;
61638;SDS011;47544;52.484;4.658;2023-07-31T00:46:06;13.52;;;4.50;;
61638;SDS011;47544;52.484;4.658;2023-07-31T00:46:19;12.05;;;3.92;;
61638;SDS011;47544;52.484;4.658;2023-07-31T00:46:31;11.82;;;4.00;;
61638;SDS011;47544;52.484;4.658;2023-07-31T00:46:42;11.57;;;4.10;;
61638;SDS011;47544;52.484;4.658;2023-07-31T00:46:53;13.57;;;4.53;;
61638;SDS011;47544;52.484;4.658;2023-07-31T00:47:04;14.30;;;4.05;;
61638;SDS011;47544;52.484;4.658;2023-07-31T00:47:16;13.75;;;3.83;;
61638;SDS011;47544;52.484;4.658;2023-07-31T00:47:26;10.65;;;3.10;;
61638;SDS011;47544;52.484;4.658;2023-07-31T00:47:38;9.85;;;3.35;;
61638;SDS011;47544;52.484;4.658;2023-07-31T00:47:49;11.73;;;3.55;;
61638;SDS011;47544;52.484;4.658;2023-07-31T00:48:00;12.05;;;3.65;;
61638;SDS011;47544;52.484;4.658;2023-07-31T00:48:12;11.52;;;4.00;;
61638;SDS011;47544;52.484;4.658;2023-07-31T00:48:24;10.93;;;4.25;;
61638;SDS011;47544;52.484;4.658;2023-07-31T00:48:35;12.63;;;4.22;;
61638;SDS011;47544;52.484;4.658;2023-07-31T00:48:47;13.40;;;4.03;;
61638;SDS011;47544;52.484;4.658;2023-07-31T00:48:59;12.50;;;3.83;;
61638;SDS011;47544;52.484;4.658;2023-07-31T00:49:10;12.15;;;3.47;;
61638;SDS011;47544;52.484;4.658;2023-07-31T00:49:21;11.75;;;3.55;;
61638;SDS011;47544;52.484;4.658;2023-07-31T00:49:32;13.85;;;4.25;;
61638;SDS011;47544;52.484;4.658;2023-07-31T00:49:43;16.92;;;4.75;;
61638;SDS011;47544;52.484;4.658;2023-07-31T00:49:55;16.17;;;4.80;;
61638;SDS011;47544;52.484;4.658;2023-07-31T00:50:08;15.23;;;4.90;;
61638;SDS011;47544;52.484;4.658;2023-07-31T00:50:20;13.48;;;4.45;;
61638;SDS011;47544;52.484;4.658;2023-07-31T00:50:32;11.63;;;3.88;;
61638;SDS011;47544;52.484;4.658;2023-07-31T00:50:43;11.43;;;3.80;;
61638;SDS011;47544;52.484;4.658;2023-07-31T00:50:54;11.30;;;3.92;;
61638;SDS011;47544;52.484;4.658;2023-07-31T00:51:06;10.68;;;3.78;;
61638;SDS011;47544;52.484;4.658;2023-07-31T00:51:17;10.63;;;3.60;;
61638;SDS011;47544;52.484;4.658;2023-07-31T00:51:28;9.93;;;3.67;;
61638;SDS011;47544;52.484;4.658;2023-07-31T00:51:39;9.70;;;3.78;;
61638;SDS011;47544;52.484;4.658;2023-07-31T00:51:50;9.20;;;3.50;;
61638;SDS011;47544;52.484;4.658;2023-07-31T00:52:01;10.20;;;3.25;;
61638;SDS011;47544;52.484;4.658;2023-07-31T00:52:13;9.45;;;3.20;;
61638;SDS011;47544;52.484;4.658;2023-07-31T00:52:24;8.00;;;3.30;;
61638;SDS011;47544;52.484;4.658;2023-07-31T00:52:36;9.60;;;3.55;;
61638;SDS011;47544;52.484;4.658;2023-07-31T00:52:47;12.38;;;3.95;;
61638;SDS011;47544;52.484;4.658;2023-07-31T00:52:58;12.52;;;3.78;;
61638;SDS011;47544;52.484;4.658;2023-07-31T00:53:09;12.35;;;3.58;;
61638;SDS011;47544;52.484;4.658;2023-07-31T00:53:20;9.88;;;3.30;;
61638;SDS011;47544;52.484;4.658;2023-07-31T00:53:31;9.27;;;3.53;;
61638;SDS011;47544;52.484;4.658;2023-07-31T00:53:42;9.23;;;3.53;;
61638;SDS011;47544;52.484;4.658;2023-07-31T00:53:53;10.98;;;3.90;;
61638;SDS011;47544;52.484;4.658;2023-07-31T00:54:04;12.00;;;4.13;;
61638;SDS011;47544;52.484;4.658;2023-07-31T00:54:16;11.82;;;4.45;;
61638;SDS011;47544;52.484;4.658;2023-07-31T00:54:28;13.55;;;4.90;;
61638;SDS011;47544;52.484;4.658;2023-07-31T00:54:39;14.77;;;5.20;;
61638;SDS011;47544;52.484;4.658;2023-07-31T00:54:50;16.13;;;5.30;;
61638;SDS011;47544;52.484;4.658;2023-07-31T00:55:02;17.15;;;5.70;;
61638;SDS011;47544;52.484;4.658;2023-07-31T00:55:13;18.58;;;5.60;;
61638;SDS011;47544;52.484;4.658;2023-07-31T00:55:24;13.32;;;4.70;;
61638;SDS011;47544;52.484;4.658;2023-07-31T00:55:35;14.20;;;4.68;;
61638;SDS011;47544;52.484;4.658;2023-07-31T00:55:46;15.35;;;5.00;;
61638;SDS011;47544;52.484;4.658;2023-07-31T00:55:57;19.17;;;5.85;;
61638;SDS011;47544;52.484;4.658;2023-07-31T00:56:09;17.63;;;5.20;;
61638;SDS011;47544;52.484;4.658;2023-07-31T00:56:20;15.52;;;4.82;;
61638;SDS011;47544;52.484;4.658;2023-07-31T00:56:31;16.17;;;5.03;;
61638;SDS011;47544;52.484;4.658;2023-07-31T00:56:43;17.17;;;5.75;;
61638;SDS011;47544;52.484;4.658;2023-07-31T00:56:55;18.73;;;6.00;;
61638;SDS011;47544;52.484;4.658;2023-07-31T00:57:07;17.42;;;5.47;;
61638;SDS011;47544;52.484;4.658;2023-07-31T00:57:18;14.13;;;4.53;;
61638;SDS011;47544;52.484;4.658;2023-07-31T00:57:30;12.52;;;4.32;;
61638;SDS011;47544;52.484;4.658;2023-07-31T00:57:41;10.70;;;4.13;;
61638;SDS011;47544;52.484;4.658;2023-07-31T00:57:54;12.07;;;4.13;;
61638;SDS011;47544;52.484;4.658;2023-07-31T00:58:07;13.57;;;4.28;;
61638;SDS011;47544;52.484;4.658;2023-07-31T00:58:18;15.38;;;4.53;;
61638;SDS011;47544;52.484;4.658;2023-07-31T00:58:31;13.00;;;4.22;;
61638;SDS011;47544;52.484;4.658;2023-07-31T00:58:42;12.65;;;4.28;;
61638;SDS011;47544;52.484;4.658;2023-07-31T00:58:53;13.13;;;4.35;;
61638;SDS011;47544;52.484;4.658;2023-07-31T00:59:04;17.92;;;5.15;;
61638;SDS011;47544;52.484;4.658;2023-07-31T00:59:15;21.45;;;5.63;;
61638;SDS011;47544;52.484;4.658;2023-07-31T00:59:26;22.33;;;5.72;;
61638;SDS011;47544;52.484;4.658;2023-07-31T00:59:37;18.00;;;4.72;;
61638;SDS011;47544;52.484;4.658;2023-07-31T00:59:49;15.48;;;4.57;;
61638;SDS011;47544;52.484;4.658;2023-07-31T01:00:00;16.45;;;4.90;;
61638;SDS011;47544;52.484;4.658;2023-07-31T01:00:11;16.65;;;5.68;;
61638;SDS011;47544;52.484;4.658;2023-07-31T01:00:23;19.45;;;6.22;;
61638;SDS011;47544;52.484;4.658;2023-07-31T01:00:34;17.15;;;5.45;;
61638;SDS011;47544;52.484;4.658;2023-07-31T01:00:45;15.88;;;5.00;;
61638;SDS011;47544;52.484;4.658;2023-07-31T01:00:56;15.98;;;4.90;;
61638;SDS011;47544;52.484;4.658;2023-07-31T01:01:07;16.53;;;4.97;;
61638;SDS011;47544;52.484;4.658;2023-07-31T01:01:18;15.93;;;4.60;;
61638;SDS011;47544;52.484;4.658;2023-07-31T01:01:29;14.05;;;4.50;;
61638;SDS011;47544;52.484;4.658;2023-07-31T01:01:40;15.00;;;4.72;;
61638;SDS011;47544;52.484;4.658;2023-07-31T01:01:52;17.42;;;4.90;;
61638;SDS011;47544;52.484;4.658;2023-07-31T01:02:04;15.45;;;4.43;;
61638;SDS011;47544;52.484;4.658;2023-07-31T01:02:15;15.15;;;4.30;;
61638;SDS011;47544;52.484;4.658;2023-07-31T01:02:26;16.55;;;4.38;;
61638;SDS011;47544;52.484;4.658;2023-07-31T01:02:37;19.08;;;5.05;;
61638;SDS011;47544;52.484;4.658;2023-07-31T01:02:48;19.50;;;5.22;;
61638;SDS011;47544;52.484;4.658;2023-07-31T01:02:59;17.25;;;5.28;;
61638;SDS011;47544;52.484;4.658;2023-07-31T01:03:11;15.57;;;5.60;;
61638;SDS011;47544;52.484;4.658;2023-07-31T01:03:23;15.95;;;5.57;;
61638;SDS011;47544;52.484;4.658;2023-07-31T01:03:34;17.27;;;5.20;;
61638;SDS011;47544;52.484;4.658;2023-07-31T01:03:45;18.83;;;4.90;;
61638;SDS011;47544;52.484;4.658;2023-07-31T01:03:56;16.65;;;4.72;;
61638;SDS011;47544;52.484;4.658;2023-07-31T01:04:07;15.00;;;4.72;;
61638;SDS011;47544;52.484;4.658;2023-07-31T01:04:18;15.43;;;4.68;;
61638;SDS011;47544;52.484;4.658;2023-07-31T01:04:29;16.48;;;5.07;;
61638;SDS011;47544;52.484;4.658;2023-07-31T01:04:52;16.88;;;5.57;;
61638;SDS011;47544;52.484;4.658;2023-07-31T01:05:03;14.50;;;5.03;;
61638;SDS011;47544;52.484;4.658;2023-07-31T01:05:15;12.40;;;4.40;;
61638;SDS011;47544;52.484;4.658;2023-07-31T01:05:29;11.25;;;3.50;;
61638;SDS011;47544;52.484;4.658;2023-07-31T01:05:46;13.93;;;3.88;;
61638;SDS011;47544;52.484;4.658;2023-07-31T01:06:03;13.93;;;4.43;;
61638;SDS011;47544;52.484;4.658;2023-07-31T01:06:17;15.10;;;4.85;;
61638;SDS011;47544;52.484;4.658;2023-07-31T01:06:31;19.83;;;6.32;;
61638;SDS011;47544;52.484;4.658;2023-07-31T01:06:44;19.73;;;6.95;;
61638;SDS011;47544;52.484;4.658;2023-07-31T01:07:00;18.45;;;6.47;;
61638;SDS011;47544;52.484;4.658;2023-07-31T01:07:13;18.23;;;5.78;;
61638;SDS011;47544;52.484;4.658;2023-07-31T01:07:27;18.13;;;5.45;;
61638;SDS011;47544;52.484;4.658;2023-07-31T01:07:42;19.13;;;6.25;;